Terminal Aerodrome Forecast
Issued by NWS

Home | Current Version | Previous Version | Text Only | Print | Product List | Glossary On
Versions: 1 2 3 4 5 6 7 8 9 10 11 12 13 14 15 16 17 18 19
000
FTUS42 KFFC 252300
TAFPDK
TAF
KPDK 252339Z 2600/2624 30005KT P6SM SKC
     FM260800 VRB03KT 5SM BR SCT100 SCT250
     FM261300 25004KT P6SM SCT250
     FM261600 27006KT P6SM SCT050=

USA.gov is the U.S. government's official web portal to all federal, state and local government web resources and services.